Time;durP1;ratioP1;P1;durP2;ratioP2;P2;SDS_P1;SDS_P2;PMS_P1;PMS_P2;Temp;Humidity;BMP_temperature;BMP_pressure;BME280_temperature;BME280_humidity;BME280_pressure;Samples;Min_cycle;Max_cycle;Signal;HPM_P1;HPM_P2
2020/12/10 00:00:23;;;;;;;12.02;6.90;;;-1.90;99.90;;;;;;2089714;28;20174;-60
2020/12/10 00:01:24;;;;;;;10.40;6.40;;;-1.80;99.90;;;;;;2089442;28;20198;-60
2020/12/10 00:02:29;;;;;;;11.57;7.03;;;-1.80;99.90;;;;;;2089824;28;20182;-61
2020/12/10 00:03:29;;;;;;;8.23;5.78;;;-1.80;99.90;;;;;;2089819;28;20176;-60
2020/12/10 00:04:30;;;;;;;8.60;5.50;;;-1.80;99.90;;;;;;2089495;28;20181;-61
2020/12/10 00:05:31;;;;;;;8.90;5.67;;;-1.80;99.90;;;;;;2089817;28;20211;-61
2020/12/10 00:06:31;;;;;;;7.20;4.70;;;-1.80;99.90;;;;;;2089644;28;20214;-61
2020/12/10 00:07:32;;;;;;;8.53;5.40;;;-1.90;99.90;;;;;;2089613;28;20201;-60
2020/12/10 00:08:33;;;;;;;8.47;5.10;;;-1.90;99.90;;;;;;2089781;28;20190;-60
2020/12/10 00:09:34;;;;;;;8.20;5.20;;;-1.90;99.90;;;;;;2089742;28;20181;-60
2020/12/10 00:10:34;;;;;;;7.03;5.00;;;-1.90;99.90;;;;;;2089580;28;20190;-60
2020/12/10 00:11:36;;;;;;;7.10;5.03;;;-1.90;99.90;;;;;;2089745;28;20212;-60
2020/12/10 00:12:44;;;;;;;6.32;4.50;;;-1.90;99.90;;;;;;2089619;28;20814;-60
2020/12/10 00:13:44;;;;;;;5.90;4.22;;;-1.90;99.90;;;;;;2089757;28;20222;-59
2020/12/10 00:14:46;;;;;;;6.70;4.50;;;-2.00;99.90;;;;;;2089640;28;20193;-60
2020/12/10 00:15:47;;;;;;;7.90;5.05;;;-2.00;99.90;;;;;;2089483;28;20258;-59
2020/12/10 00:16:49;;;;;;;7.17;4.73;;;-2.00;99.90;;;;;;2089711;28;20184;-59
2020/12/10 00:17:49;;;;;;;8.82;5.03;;;-2.00;99.90;;;;;;2089695;28;20583;-60
2020/12/10 00:18:50;;;;;;;7.03;4.77;;;-2.00;99.90;;;;;;2089519;28;20304;-60
2020/12/10 00:19:51;;;;;;;7.07;4.63;;;-2.00;99.90;;;;;;2089701;28;20173;-60
2020/12/10 00:20:51;;;;;;;6.60;4.10;;;-2.00;99.90;;;;;;2089057;28;20175;-58
2020/12/10 00:21:55;;;;;;;7.07;4.73;;;-2.00;99.90;;;;;;2089502;28;20259;-61
2020/12/10 00:22:56;;;;;;;6.85;4.25;;;-2.10;99.90;;;;;;2113412;22;20305;-68
2020/12/10 00:23:56;;;;;;;8.97;5.10;;;-2.10;99.90;;;;;;2089275;28;20180;-69
2020/12/10 00:24:57;;;;;;;9.43;5.00;;;-2.10;99.90;;;;;;2081433;28;20205;-67
2020/12/10 00:25:58;;;;;;;9.63;4.97;;;-2.10;99.90;;;;;;2081424;28;20553;-66
2020/12/10 00:26:58;;;;;;;8.30;5.40;;;-2.10;99.90;;;;;;2081253;28;20197;-67
2020/12/10 00:27:59;;;;;;;7.70;4.90;;;-2.10;99.90;;;;;;2081563;28;20229;-69
2020/12/10 00:29:00;;;;;;;9.00;5.40;;;-2.10;99.90;;;;;;2081588;28;20204;-69
2020/12/10 00:30:03;;;;;;;7.50;5.27;;;-2.10;99.90;;;;;;2081626;28;20652;-69
2020/12/10 00:31:04;;;;;;;8.00;5.47;;;-2.10;99.90;;;;;;2088535;28;20182;-68
2020/12/10 00:32:05;;;;;;;7.70;5.22;;;-2.10;99.90;;;;;;2088519;28;20605;-70
2020/12/10 00:33:05;;;;;;;15.63;7.60;;;-2.10;99.90;;;;;;2074924;28;20205;-69
2020/12/10 00:34:07;;;;;;;23.00;9.23;;;-2.10;99.90;;;;;;2073458;28;20643;-69
2020/12/10 00:35:09;;;;;;;23.60;9.65;;;-2.00;99.90;;;;;;2073155;28;20187;-69
2020/12/10 00:36:13;;;;;;;20.90;8.77;;;-2.10;99.90;;;;;;2073299;28;20182;-68
2020/12/10 00:37:14;;;;;;;20.13;8.70;;;-2.00;99.90;;;;;;2073235;28;20689;-69
2020/12/10 00:38:14;;;;;;;18.70;9.20;;;-2.00;99.90;;;;;;2073176;28;20183;-69
2020/12/10 00:39:15;;;;;;;17.93;8.40;;;-2.00;99.90;;;;;;2073219;28;20356;-70
2020/12/10 00:40:16;;;;;;;12.87;7.10;;;-2.00;99.90;;;;;;2073369;28;20181;-69
2020/12/10 00:41:16;;;;;;;13.63;7.40;;;-2.00;99.90;;;;;;2072309;28;20785;-69
2020/12/10 00:42:17;;;;;;;16.13;8.20;;;-1.90;99.90;;;;;;2072678;28;20226;-70
2020/12/10 00:43:18;;;;;;;12.80;6.70;;;-1.90;99.90;;;;;;2073074;28;20282;-68
2020/12/10 00:44:19;;;;;;;16.87;7.73;;;-1.80;99.90;;;;;;2073405;28;20185;-69
2020/12/10 00:45:20;;;;;;;17.17;7.00;;;-1.80;99.90;;;;;;2073216;28;20232;-69
2020/12/10 00:46:21;;;;;;;13.77;7.10;;;-1.70;99.90;;;;;;2073239;28;20591;-70
2020/12/10 00:47:21;;;;;;;9.13;6.20;;;-1.70;99.90;;;;;;2073256;28;20259;-69
2020/12/10 00:48:23;;;;;;;11.53;5.77;;;-1.60;99.90;;;;;;2073004;28;20664;-68
2020/12/10 00:49:24;;;;;;;10.25;6.25;;;-1.50;99.90;;;;;;2073310;28;20186;-69
2020/12/10 00:50:24;;;;;;;9.13;5.50;;;-1.50;99.90;;;;;;2073188;28;20194;-69
2020/12/10 00:51:25;;;;;;;9.50;5.90;;;-1.40;99.90;;;;;;2072978;28;20185;-68
2020/12/10 00:52:26;;;;;;;9.87;5.67;;;-1.40;99.90;;;;;;2073027;28;20193;-66
2020/12/10 00:53:28;;;;;;;11.45;6.55;;;-1.30;99.90;;;;;;2073135;28;20184;-70
2020/12/10 00:54:29;;;;;;;11.50;6.95;;;-1.30;99.90;;;;;;2072246;28;20195;-69
2020/12/10 00:55:30;;;;;;;10.43;6.20;;;-1.20;99.90;;;;;;2072681;28;20187;-68
2020/12/10 00:56:35;;;;;;;9.53;5.73;;;-1.20;99.90;;;;;;2073191;28;20666;-66
2020/12/10 00:57:35;;;;;;;9.32;5.90;;;-1.20;99.90;;;;;;2072657;28;20589;-69
2020/12/10 00:58:36;;;;;;;9.00;5.50;;;-1.20;99.90;;;;;;2072297;28;20192;-68
2020/12/10 00:59:40;;;;;;;9.77;5.93;;;-1.20;99.90;;;;;;2073286;28;20234;-69
2020/12/10 01:00:41;;;;;;;8.55;5.57;;;-1.10;99.90;;;;;;2073041;28;20180;-69
2020/12/10 01:01:43;;;;;;;10.00;6.20;;;-1.10;99.90;;;;;;2072963;28;20184;-69
2020/12/10 01:02:44;;;;;;;9.75;6.18;;;-1.10;99.90;;;;;;2072744;28;20196;-71
2020/12/10 01:03:44;;;;;;;11.33;5.80;;;-1.10;99.90;;;;;;2073177;28;20194;-69
2020/12/10 01:04:45;;;;;;;9.43;5.73;;;-1.00;99.90;;;;;;2072871;28;20208;-70
2020/12/10 01:05:46;;;;;;;9.67;6.23;;;-1.00;99.90;;;;;;2073101;28;20207;-69
2020/12/10 01:06:46;;;;;;;10.03;6.00;;;-1.00;99.90;;;;;;2072968;28;20177;-66
2020/12/10 01:07:49;;;;;;;8.57;5.47;;;-1.10;99.90;;;;;;2073055;28;20643;-70
2020/12/10 01:08:49;;;;;;;9.45;5.88;;;-1.00;99.90;;;;;;2073029;28;20294;-69
2020/12/10 01:09:50;;;;;;;7.60;5.03;;;-1.10;99.90;;;;;;2072787;28;20180;-69
2020/12/10 01:10:51;;;;;;;8.27;5.40;;;-1.20;99.90;;;;;;2072731;28;20472;-66
2020/12/10 01:11:51;;;;;;;7.47;5.17;;;-1.20;99.90;;;;;;2073102;28;20668;-68
2020/12/10 01:12:52;;;;;;;9.80;5.67;;;-1.30;99.90;;;;;;2073050;28;20242;-69
2020/12/10 01:13:55;;;;;;;10.40;5.60;;;-1.30;99.90;;;;;;2072595;28;20653;-68
2020/12/10 01:14:55;;;;;;;7.72;5.50;;;-1.40;99.90;;;;;;2072429;28;20175;-71
2020/12/10 01:15:56;;;;;;;11.47;7.33;;;-1.30;99.90;;;;;;2072883;28;20234;-69
2020/12/10 01:16:57;;;;;;;11.00;6.20;;;-1.30;99.90;;;;;;2073117;28;20209;-69
2020/12/10 01:17:58;;;;;;;9.77;6.05;;;-1.30;99.90;;;;;;2073260;28;20179;-70
2020/12/10 01:18:59;;;;;;;7.87;5.77;;;-1.30;99.90;;;;;;2072829;28;20709;-68
2020/12/10 01:20:00;;;;;;;9.90;6.28;;;-1.30;99.90;;;;;;2072567;28;20203;-68
2020/12/10 01:21:00;;;;;;;9.47;5.87;;;-1.30;99.90;;;;;;2072189;28;20666;-67
2020/12/10 01:22:01;;;;;;;10.27;6.37;;;-1.40;99.90;;;;;;2073156;28;20180;-66
2020/12/10 01:23:02;;;;;;;10.80;6.70;;;-1.40;99.90;;;;;;2072841;28;20726;-67
2020/12/10 01:24:04;;;;;;;11.03;6.93;;;-1.40;99.90;;;;;;2073130;28;20188;-67
2020/12/10 01:25:05;;;;;;;10.73;7.47;;;-1.40;99.90;;;;;;2073075;28;20182;-67
2020/12/10 01:26:10;;;;;;;10.43;7.13;;;-1.40;99.90;;;;;;2072977;28;20698;-69
2020/12/10 01:27:11;;;;;;;11.98;6.65;;;-1.40;99.90;;;;;;2073076;28;20243;-68
2020/12/10 01:28:12;;;;;;;10.50;6.50;;;-1.40;99.90;;;;;;2073015;28;20706;-69
2020/12/10 01:29:12;;;;;;;12.60;6.83;;;-1.40;99.90;;;;;;2073013;28;20216;-68
2020/12/10 01:30:13;;;;;;;9.30;6.40;;;-1.50;99.90;;;;;;2073063;28;20762;-69
2020/12/10 01:31:14;;;;;;;10.63;6.80;;;-1.50;99.90;;;;;;2072704;28;20223;-70
2020/12/10 01:32:15;;;;;;;9.13;6.00;;;-1.40;99.90;;;;;;2072915;28;20654;-69
2020/12/10 01:33:17;;;;;;;10.95;6.32;;;-1.50;99.90;;;;;;2072815;28;20448;-70
2020/12/10 01:34:18;;;;;;;9.07;5.78;;;-1.50;99.90;;;;;;2072958;28;20193;-68
2020/12/10 01:35:19;;;;;;;8.80;6.10;;;-1.50;99.90;;;;;;2072845;28;20184;-69
2020/12/10 01:36:22;;;;;;;10.70;6.17;;;-1.40;99.90;;;;;;2073048;28;20287;-68
2020/12/10 01:37:23;;;;;;;11.15;5.95;;;-1.40;99.90;;;;;;2072094;28;20192;-68
2020/12/10 01:38:24;;;;;;;10.68;6.47;;;-1.40;99.90;;;;;;2072398;28;20197;-70
2020/12/10 01:39:25;;;;;;;9.30;6.10;;;-1.40;99.90;;;;;;2072896;28;20577;-69
2020/12/10 01:40:25;;;;;;;9.37;5.97;;;-1.30;99.90;;;;;;2072951;28;20211;-68
2020/12/10 01:41:30;;;;;;;10.40;6.33;;;-1.40;99.90;;;;;;2072731;28;20183;-70
2020/12/10 01:42:31;;;;;;;8.60;5.78;;;-1.40;99.90;;;;;;2072045;28;20259;-68
2020/12/10 01:43:31;;;;;;;11.32;6.82;;;-1.30;99.90;;;;;;2072471;28;20192;-69
2020/12/10 01:44:32;;;;;;;10.53;6.57;;;-1.30;99.90;;;;;;2073043;28;20242;-68
2020/12/10 01:45:33;;;;;;;10.67;7.03;;;-1.20;99.90;;;;;;2073763;28;20207;-69
2020/12/10 01:46:35;;;;;;;11.57;7.03;;;-1.20;99.90;;;;;;2088526;28;20214;-69
2020/12/10 01:47:37;;;;;;;10.63;6.25;;;-1.10;99.90;;;;;;2088209;28;20184;-69
2020/12/10 01:48:39;;;;;;;12.27;6.95;;;-1.10;99.90;;;;;;2080930;28;20179;-70
2020/12/10 01:49:40;;;;;;;12.20;7.05;;;-1.10;99.90;;;;;;2080407;28;20216;-70
2020/12/10 01:50:41;;;;;;;11.45;7.22;;;-1.10;99.90;;;;;;2080415;28;20656;-69
2020/12/10 01:51:42;;;;;;;11.57;6.70;;;-1.10;99.90;;;;;;2081142;28;20385;-69
2020/12/10 01:52:42;;;;;;;11.33;6.80;;;-1.10;99.90;;;;;;2080742;28;20693;-68
2020/12/10 01:53:43;;;;;;;14.53;8.67;;;-1.00;99.90;;;;;;2081081;28;20698;-69
2020/12/10 01:54:44;;;;;;;12.30;7.17;;;-1.00;99.90;;;;;;2080954;28;20188;-70
2020/12/10 01:55:45;;;;;;;12.17;6.70;;;-1.10;99.90;;;;;;2081135;28;20175;-69
2020/12/10 01:56:46;;;;;;;10.57;6.85;;;-1.00;99.90;;;;;;2081193;28;20179;-73
2020/12/10 01:57:47;;;;;;;10.47;6.57;;;-0.90;99.90;;;;;;2080984;28;20203;-70
2020/12/10 01:58:47;;;;;;;12.77;7.27;;;-1.00;99.90;;;;;;2080108;28;20171;-68
2020/12/10 01:59:49;;;;;;;9.40;6.20;;;-1.00;99.90;;;;;;2080372;28;20263;-69
2020/12/10 02:00:53;;;;;;;10.45;6.70;;;-1.00;99.90;;;;;;2080648;28;20205;-71
2020/12/10 02:01:53;;;;;;;10.73;6.93;;;-1.00;99.90;;;;;;2081117;28;20188;-69
2020/12/10 02:02:58;;;;;;;11.03;7.20;;;-0.60;99.90;;;;;;2081047;28;20203;-69
2020/12/10 02:03:59;;;;;;;11.45;7.10;;;-1.00;99.90;;;;;;2080754;28;20191;-69
2020/12/10 02:05:00;;;;;;;10.70;6.67;;;-1.00;99.90;;;;;;2081007;28;20195;-68
2020/12/10 02:06:00;;;;;;;11.97;7.07;;;-1.00;99.90;;;;;;2081089;28;20243;-70
2020/12/10 02:07:01;;;;;;;11.77;7.53;;;-1.10;99.90;;;;;;2080965;28;20186;-69
2020/12/10 02:08:02;;;;;;;13.73;7.75;;;-1.10;99.90;;;;;;2081082;28;20585;-69
2020/12/10 02:09:03;;;;;;;12.17;6.83;;;-1.10;99.90;;;;;;2080777;28;20214;-69
2020/12/10 02:10:03;;;;;;;13.67;7.27;;;-1.00;99.90;;;;;;2081010;28;20647;-69
2020/12/10 02:11:08;;;;;;;12.40;7.97;;;-1.00;99.90;;;;;;2080674;28;20222;-69
2020/12/10 02:12:10;;;;;;;12.05;6.38;;;-1.10;99.90;;;;;;2081098;28;20187;-71
2020/12/10 02:13:10;;;;;;;12.43;6.90;;;-1.10;99.90;;;;;;2080881;28;20210;-70
2020/12/10 02:14:11;;;;;;;11.87;6.80;;;-1.10;99.90;;;;;;2081111;28;20174;-70
2020/12/10 02:15:12;;;;;;;9.63;6.40;;;-1.10;99.90;;;;;;2081918;28;20194;-69
2020/12/10 02:16:12;;;;;;;9.00;6.40;;;-1.00;99.90;;;;;;2082634;28;20184;-72
2020/12/10 02:17:13;;;;;;;10.03;6.50;;;-1.00;99.90;;;;;;2082413;28;20206;-70
2020/12/10 02:18:14;;;;;;;11.20;6.80;;;-1.00;99.90;;;;;;2081960;28;20208;-69
2020/12/10 02:19:15;;;;;;;10.57;6.80;;;-1.10;99.90;;;;;;2081752;28;20200;-69
2020/12/10 02:20:15;;;;;;;9.67;6.10;;;-1.10;99.90;;;;;;2082498;28;20199;-69
2020/12/10 02:21:16;;;;;;;10.27;6.53;;;-1.00;99.90;;;;;;2082294;28;20179;-69
2020/12/10 02:22:16;;;;;;;11.97;7.70;;;-1.00;99.90;;;;;;2082591;28;20519;-70
2020/12/10 02:23:17;;;;;;;11.87;7.23;;;-1.00;99.90;;;;;;2082375;28;20222;-70
2020/12/10 02:24:18;;;;;;;12.17;7.50;;;-1.00;99.90;;;;;;2081980;28;20185;-69
2020/12/10 02:25:19;;;;;;;9.60;6.03;;;-1.00;99.90;;;;;;2081735;28;20229;-69
2020/12/10 02:26:24;;;;;;;10.67;6.93;;;-1.00;99.90;;;;;;2081970;28;20454;-69
2020/12/10 02:27:25;;;;;;;9.93;6.65;;;-1.00;99.90;;;;;;2082447;28;20180;-68
2020/12/10 02:28:26;;;;;;;10.43;6.60;;;-1.10;99.90;;;;;;2082449;28;20185;-70
2020/12/10 02:29:26;;;;;;;11.90;7.45;;;-1.10;99.90;;;;;;2082374;28;20188;-69
2020/12/10 02:30:29;;;;;;;11.97;7.33;;;-1.10;99.90;;;;;;2082549;28;20827;-68
2020/12/10 02:31:31;;;;;;;10.30;7.20;;;-1.10;99.90;;;;;;2081575;28;20822;-69
2020/12/10 02:32:32;;;;;;;9.20;6.22;;;-1.00;99.90;;;;;;2073913;28;20188;-69
2020/12/10 02:33:32;;;;;;;10.57;7.23;;;-1.00;99.90;;;;;;2081822;28;20187;-69
2020/12/10 02:34:33;;;;;;;10.67;7.10;;;-1.00;99.90;;;;;;2082516;28;20191;-68
2020/12/10 02:35:36;;;;;;;12.47;7.60;;;-1.00;99.90;;;;;;2081973;28;20606;-69
2020/12/10 02:36:38;;;;;;;10.98;7.20;;;-1.00;99.90;;;;;;2073669;28;20181;-69
2020/12/10 02:37:38;;;;;;;11.05;7.15;;;-1.00;99.90;;;;;;2073908;28;20220;-69
2020/12/10 02:38:39;;;;;;;11.87;7.67;;;-1.00;99.90;;;;;;2073512;28;20177;-69
2020/12/10 02:39:40;;;;;;;11.63;7.27;;;-1.00;99.90;;;;;;2081835;28;20245;-70
2020/12/10 02:40:46;;;;;;;12.97;7.80;;;-1.00;99.90;;;;;;2082397;28;20557;-71
2020/12/10 02:41:48;;;;;;;10.82;6.65;;;-1.00;99.90;;;;;;2082314;28;20171;-69
2020/12/10 02:42:49;;;;;;;10.75;7.00;;;-1.00;99.90;;;;;;2082158;28;20226;-70
2020/12/10 02:43:50;;;;;;;11.70;7.53;;;-0.90;99.90;;;;;;2082453;28;20180;-68
2020/12/10 02:44:50;;;;;;;11.50;7.28;;;-1.00;99.90;;;;;;2081781;28;20276;-69
2020/12/10 02:45:51;;;;;;;12.27;7.47;;;-0.90;99.90;;;;;;2081998;28;20203;-68
2020/12/10 02:46:52;;;;;;;10.53;6.83;;;-0.90;99.90;;;;;;2082200;28;20175;-70
2020/12/10 02:47:54;;;;;;;10.67;7.23;;;-0.40;99.90;;;;;;2082250;28;20180;-69
2020/12/10 02:48:54;;;;;;;12.40;7.07;;;-0.90;99.90;;;;;;2082320;28;20187;-70
2020/12/10 02:49:55;;;;;;;12.33;7.10;;;-0.80;99.90;;;;;;2082515;28;20191;-68
2020/12/10 02:51:00;;;;;;;13.40;8.10;;;-0.90;99.90;;;;;;2082023;28;20666;-69
2020/12/10 02:52:01;;;;;;;12.52;7.28;;;-0.90;99.90;;;;;;2082475;28;20180;-68
2020/12/10 02:53:01;;;;;;;10.90;6.80;;;-0.90;99.90;;;;;;2089895;28;20333;-68
2020/12/10 02:54:02;;;;;;;13.87;7.93;;;-0.90;99.90;;;;;;2081607;28;20299;-70
2020/12/10 02:55:03;;;;;;;10.93;6.33;;;-0.90;99.90;;;;;;2081732;28;20207;-69
2020/12/10 02:56:12;;;;;;;11.10;6.85;;;-0.90;99.90;;;;;;2082450;28;20179;-68
2020/12/10 02:57:12;;;;;;;10.52;6.47;;;-0.90;99.90;;;;;;2081895;28;20307;-70
2020/12/10 02:58:13;;;;;;;11.17;6.67;;;-0.90;99.90;;;;;;2081897;28;20206;-69
2020/12/10 02:59:14;;;;;;;11.70;6.77;;;-0.80;99.90;;;;;;2082037;28;20204;-69
2020/12/10 03:00:15;;;;;;;9.23;6.17;;;-0.80;99.90;;;;;;2082534;28;20588;-71
2020/12/10 03:01:15;;;;;;;10.33;6.77;;;-0.80;99.90;;;;;;2082235;28;20202;-69
2020/12/10 03:02:16;;;;;;;12.53;6.93;;;-0.80;99.90;;;;;;2082414;28;20187;-69
2020/12/10 03:03:18;;;;;;;11.07;6.70;;;-0.80;99.90;;;;;;2082222;28;20196;-70
2020/12/10 03:04:18;;;;;;;12.25;7.50;;;-0.90;99.90;;;;;;2082351;28;20176;-69
2020/12/10 03:05:19;;;;;;;10.33;6.57;;;-0.90;99.90;;;;;;2082307;28;20667;-69
2020/12/10 03:06:20;;;;;;;11.03;6.53;;;-0.90;99.90;;;;;;2082576;28;20230;-68
2020/12/10 03:07:20;;;;;;;13.13;7.23;;;-0.90;99.90;;;;;;2082339;28;20188;-68
2020/12/10 03:08:21;;;;;;;11.97;6.97;;;-0.90;99.90;;;;;;2082338;28;20181;-73
2020/12/10 03:09:22;;;;;;;9.30;5.93;;;-0.90;99.90;;;;;;2081642;28;20188;-68
2020/12/10 03:10:22;;;;;;;10.87;6.90;;;-1.00;99.90;;;;;;2081433;28;20694;-68
2020/12/10 03:11:23;;;;;;;11.17;7.27;;;-0.90;99.90;;;;;;2081923;28;20270;-68
2020/12/10 03:12:24;;;;;;;11.47;6.97;;;-0.90;99.90;;;;;;2082325;28;20184;-69
2020/12/10 03:13:24;;;;;;;10.33;6.80;;;-0.80;99.90;;;;;;2082069;28;20828;-69
2020/12/10 03:14:25;;;;;;;11.30;6.67;;;-0.70;99.90;;;;;;2082200;28;20179;-69
2020/12/10 03:15:26;;;;;;;11.57;6.80;;;-0.70;99.90;;;;;;2081931;28;20247;-69
2020/12/10 03:16:26;;;;;;;13.20;7.30;;;-0.70;99.90;;;;;;2082167;28;20180;-69
2020/12/10 03:17:27;;;;;;;10.93;6.93;;;-0.70;99.90;;;;;;2082160;28;20204;-69
2020/12/10 03:18:28;;;;;;;14.60;8.18;;;-0.70;99.90;;;;;;2082336;28;20210;-69
2020/12/10 03:19:29;;;;;;;12.20;6.88;;;-0.70;99.90;;;;;;2081982;28;20212;-71
2020/12/10 03:20:33;;;;;;;12.60;7.53;;;-0.80;99.90;;;;;;2082148;28;20579;-69
2020/12/10 03:21:33;;;;;;;14.73;8.57;;;-0.90;99.90;;;;;;2081090;28;20615;-69
2020/12/10 03:22:34;;;;;;;14.47;7.83;;;-0.80;99.90;;;;;;2081428;28;20191;-69
2020/12/10 03:23:35;;;;;;;17.60;8.70;;;-0.80;99.90;;;;;;2081654;28;20817;-71
2020/12/10 03:24:35;;;;;;;12.63;7.83;;;-0.70;99.90;;;;;;2082134;28;20176;-69
2020/12/10 03:25:36;;;;;;;14.77;8.07;;;-0.70;99.90;;;;;;2081991;28;20184;-68
2020/12/10 03:26:37;;;;;;;14.77;8.20;;;-0.70;99.90;;;;;;2089382;28;20734;-69
2020/12/10 03:27:37;;;;;;;15.90;8.10;;;-0.80;99.90;;;;;;2089678;28;20257;-69
2020/12/10 03:28:38;;;;;;;15.97;8.40;;;-0.80;99.90;;;;;;2081940;28;20674;-68
2020/12/10 03:29:39;;;;;;;18.23;9.70;;;-0.80;99.90;;;;;;2082021;28;20183;-70
2020/12/10 03:30:39;;;;;;;15.43;8.60;;;-0.70;99.90;;;;;;2081954;28;20666;-69
2020/12/10 03:31:40;;;;;;;15.50;8.20;;;-0.80;99.90;;;;;;2081783;28;20207;-68
2020/12/10 03:32:41;;;;;;;14.53;8.23;;;-0.70;99.90;;;;;;2081885;28;20219;-68
2020/12/10 03:33:41;;;;;;;13.83;7.97;;;-0.80;99.90;;;;;;2081997;28;20183;-70
2020/12/10 03:34:42;;;;;;;13.87;8.50;;;-0.80;99.90;;;;;;2081961;28;20192;-69
2020/12/10 03:35:43;;;;;;;11.83;7.27;;;-0.80;99.90;;;;;;2081957;28;20187;-70
2020/12/10 03:36:50;;;;;;;13.40;7.73;;;-0.80;99.90;;;;;;2081972;28;20230;-70
2020/12/10 03:37:51;;;;;;;17.95;9.55;;;-0.80;99.90;;;;;;2081863;28;20176;-69
2020/12/10 03:38:52;;;;;;;14.18;8.07;;;-0.70;99.90;;;;;;2081881;28;20180;-69
2020/12/10 03:39:52;;;;;;;16.20;8.60;;;-0.70;99.90;;;;;;2082120;28;20267;-69
2020/12/10 03:40:53;;;;;;;16.30;8.97;;;-0.80;99.90;;;;;;2081650;28;20234;-68
2020/12/10 03:41:58;;;;;;;18.67;9.80;;;-0.70;99.90;;;;;;2081975;28;20662;-69
2020/12/10 03:42:59;;;;;;;17.40;9.43;;;-0.70;99.90;;;;;;2089042;28;20202;-68
2020/12/10 03:43:59;;;;;;;15.53;8.73;;;-0.70;99.90;;;;;;2089611;28;20209;-69
2020/12/10 03:45:00;;;;;;;14.97;8.83;;;-0.70;99.90;;;;;;2081900;28;20234;-69
2020/12/10 03:46:01;;;;;;;16.53;8.17;;;-0.70;99.90;;;;;;2081866;28;20635;-69
2020/12/10 03:47:01;;;;;;;14.73;8.60;;;-0.80;99.90;;;;;;2081975;28;20271;-69
2020/12/10 03:48:02;;;;;;;14.80;8.13;;;-0.70;99.90;;;;;;2080956;28;20186;-70
2020/12/10 03:49:03;;;;;;;14.73;8.03;;;-0.70;99.90;;;;;;2081030;28;20555;-68
2020/12/10 03:50:05;;;;;;;13.27;7.73;;;-0.70;99.90;;;;;;2081902;28;20714;-68
2020/12/10 03:51:05;;;;;;;13.52;7.85;;;-0.70;99.90;;;;;;2081591;28;20194;-68
2020/12/10 03:52:06;;;;;;;13.20;7.73;;;-0.70;99.90;;;;;;2081913;28;20571;-68
2020/12/10 03:53:07;;;;;;;18.30;9.10;;;-0.80;99.90;;;;;;2081642;28;20203;-68
2020/12/10 03:54:08;;;;;;;14.57;8.20;;;-0.80;99.90;;;;;;2081732;28;20187;-68
2020/12/10 03:55:08;;;;;;;13.97;8.03;;;-0.80;99.90;;;;;;2076388;28;20205;-69
2020/12/10 03:56:09;;;;;;;11.07;6.83;;;-0.80;99.90;;;;;;2073606;28;20531;-70
2020/12/10 03:57:10;;;;;;;15.63;8.57;;;-0.80;99.90;;;;;;2073517;28;20203;-69
2020/12/10 03:58:11;;;;;;;17.08;9.02;;;-0.80;99.90;;;;;;2073677;28;20211;-70
2020/12/10 03:59:12;;;;;;;16.00;8.93;;;-0.80;99.90;;;;;;2073452;28;20266;-69
2020/12/10 04:00:12;;;;;;;18.83;9.57;;;-0.70;99.90;;;;;;2073444;28;20192;-68
2020/12/10 04:01:13;;;;;;;15.60;8.30;;;-0.60;99.90;;;;;;2073271;28;20426;-69
2020/12/10 04:02:14;;;;;;;14.03;8.97;;;-0.60;99.90;;;;;;2072932;28;20710;-69
2020/12/10 04:03:14;;;;;;;15.90;8.53;;;-0.70;99.90;;;;;;2072838;28;20224;-69
2020/12/10 04:04:15;;;;;;;15.27;8.97;;;-0.60;99.90;;;;;;2073035;28;20198;-70
2020/12/10 04:05:16;;;;;;;14.93;8.17;;;-0.60;99.90;;;;;;2073339;28;20239;-69
2020/12/10 04:06:17;;;;;;;16.77;9.13;;;-0.60;99.90;;;;;;2073692;28;20173;-68
2020/12/10 04:07:17;;;;;;;17.10;9.20;;;-0.60;99.90;;;;;;2073502;28;20187;-68
2020/12/10 04:08:18;;;;;;;14.13;8.57;;;-0.60;99.90;;;;;;2073561;28;20183;-68
2020/12/10 04:09:19;;;;;;;14.73;8.60;;;-0.70;99.90;;;;;;2072890;28;20185;-69
2020/12/10 04:10:19;;;;;;;12.87;8.50;;;-0.70;99.90;;;;;;2072900;28;20185;-69
2020/12/10 04:11:20;;;;;;;15.33;8.40;;;-0.70;99.90;;;;;;2072520;28;20726;-68
2020/12/10 04:12:21;;;;;;;16.37;8.63;;;-0.70;99.90;;;;;;2064555;28;20286;-69
2020/12/10 04:13:21;;;;;;;18.87;9.67;;;-0.70;99.90;;;;;;2064810;28;20254;-69
2020/12/10 04:14:22;;;;;;;15.00;9.03;;;-0.70;99.90;;;;;;2080931;28;20221;-68
2020/12/10 04:15:23;;;;;;;14.87;9.50;;;-0.70;99.90;;;;;;2072848;28;20187;-69
2020/12/10 04:16:23;;;;;;;17.93;9.33;;;-0.70;99.90;;;;;;2072850;28;20234;-69
2020/12/10 04:17:24;;;;;;;15.47;9.03;;;-0.80;99.90;;;;;;2073405;28;20180;-69
2020/12/10 04:18:25;;;;;;;17.03;9.77;;;-0.80;99.90;;;;;;2073436;28;20880;-69
2020/12/10 04:19:25;;;;;;;17.77;9.70;;;-0.80;99.90;;;;;;2073493;28;20207;-70
2020/12/10 04:20:26;;;;;;;14.50;9.27;;;-0.80;99.90;;;;;;2072852;28;20255;-68
2020/12/10 04:21:27;;;;;;;16.50;8.87;;;-0.80;99.90;;;;;;2072680;28;20182;-69
2020/12/10 04:22:27;;;;;;;16.13;9.90;;;-0.70;99.90;;;;;;2072996;28;20189;-69
2020/12/10 04:23:28;;;;;;;16.53;9.30;;;-0.70;99.90;;;;;;2073296;28;20165;-69
2020/12/10 04:24:29;;;;;;;17.17;9.37;;;-0.70;99.90;;;;;;2073010;28;20652;-68
2020/12/10 04:25:29;;;;;;;19.57;10.63;;;-0.60;99.90;;;;;;2073210;28;20620;-70
2020/12/10 04:26:30;;;;;;;22.03;11.00;;;-0.60;99.90;;;;;;2073196;28;20192;-68
2020/12/10 04:27:31;;;;;;;20.43;10.80;;;-0.60;99.90;;;;;;2073099;28;20184;-68
2020/12/10 04:28:31;;;;;;;22.70;11.23;;;-0.60;99.90;;;;;;2072828;28;20182;-70
2020/12/10 04:29:32;;;;;;;17.97;9.70;;;-0.50;99.90;;;;;;2073186;28;20567;-68
2020/12/10 04:30:33;;;;;;;17.50;10.37;;;-0.60;99.90;;;;;;2072911;28;20246;-69
2020/12/10 04:31:36;;;;;;;27.13;11.80;;;-0.50;99.90;;;;;;2072999;28;20189;-69
2020/12/10 04:32:37;;;;;;;21.77;11.05;;;-0.60;99.90;;;;;;2072265;28;20247;-69
2020/12/10 04:33:38;;;;;;;19.20;10.53;;;-0.60;99.90;;;;;;2064341;28;20211;-69
2020/12/10 04:34:39;;;;;;;17.42;9.38;;;-0.60;99.90;;;;;;2072310;28;20189;-69
2020/12/10 04:35:41;;;;;;;19.77;10.33;;;-0.60;99.90;;;;;;2073137;28;20185;-73
2020/12/10 04:36:42;;;;;;;18.85;10.13;;;-0.60;99.90;;;;;;2072953;28;20599;-69
2020/12/10 04:37:42;;;;;;;21.60;11.00;;;-0.60;99.90;;;;;;2072557;28;20188;-69
2020/12/10 04:38:43;;;;;;;19.83;9.87;;;-0.60;99.90;;;;;;2072892;28;20191;-68
2020/12/10 04:39:44;;;;;;;17.20;9.77;;;-0.60;99.90;;;;;;2073047;28;20187;-68
2020/12/10 04:40:45;;;;;;;23.07;11.10;;;-0.60;99.90;;;;;;2073060;28;20583;-69
2020/12/10 04:41:47;;;;;;;22.63;10.87;;;-0.60;99.90;;;;;;2073228;28;20190;-70
2020/12/10 04:42:49;;;;;;;18.40;10.75;;;-0.70;99.90;;;;;;2072475;28;20228;-70
2020/12/10 04:43:52;;;;;;;27.92;11.60;;;-0.60;99.90;;;;;;2072512;28;20231;-69
2020/12/10 04:44:53;;;;;;;22.15;12.70;;;-0.70;99.90;;;;;;2072255;28;20630;-69
2020/12/10 04:45:59;;;;;;;18.20;10.90;;;-0.70;99.90;;;;;;2072743;28;20184;-69
2020/12/10 04:47:01;;;;;;;21.60;10.80;;;-0.70;99.90;;;;;;2072765;28;20211;-68
2020/12/10 04:48:02;;;;;;;26.33;11.52;;;-0.60;99.90;;;;;;2072949;28;20187;-71
2020/12/10 04:49:04;;;;;;;22.60;11.77;;;-0.60;99.90;;;;;;2072210;28;20187;-69
2020/12/10 04:50:15;;;;;;;21.20;10.25;;;-0.70;99.90;;;;;;2072318;28;20236;-69
2020/12/10 04:51:16;;;;;;;26.85;12.10;;;-0.60;99.90;;;;;;2071897;28;20172;-71
2020/12/10 04:52:18;;;;;;;19.73;10.73;;;-0.60;99.90;;;;;;2072317;28;20679;-69
2020/12/10 04:53:19;;;;;;;21.77;11.27;;;-0.60;99.90;;;;;;2071988;28;20240;-70
2020/12/10 04:54:19;;;;;;;23.00;11.53;;;-0.60;99.90;;;;;;2072246;28;20190;-68
2020/12/10 04:55:21;;;;;;;24.17;11.33;;;-0.60;99.90;;;;;;2072126;28;20659;-69
2020/12/10 04:56:22;;;;;;;21.75;11.48;;;-0.50;99.90;;;;;;2072749;28;20188;-71
2020/12/10 04:57:28;;;;;;;23.03;10.70;;;-0.50;99.90;;;;;;2072477;28;20185;-69
2020/12/10 04:58:29;;;;;;;21.48;10.10;;;-0.50;99.90;;;;;;2072803;28;20260;-69
2020/12/10 04:59:30;;;;;;;20.70;11.60;;;-0.40;99.90;;;;;;2072550;28;20217;-70
2020/12/10 05:00:31;;;;;;;23.17;10.00;;;-0.50;99.90;;;;;;2072750;28;20415;-69
2020/12/10 05:01:31;;;;;;;20.23;11.20;;;-0.60;99.90;;;;;;2072404;28;20181;-69
2020/12/10 05:02:32;;;;;;;25.87;12.77;;;-0.50;99.90;;;;;;2071885;28;20595;-69
2020/12/10 05:03:33;;;;;;;22.60;11.03;;;-0.60;99.90;;;;;;2072086;28;20208;-68
2020/12/10 05:04:34;;;;;;;19.70;9.33;;;-0.60;99.90;;;;;;2072100;28;20196;-69
2020/12/10 05:05:35;;;;;;;25.80;12.32;;;-0.60;99.90;;;;;;2072015;28;20180;-69
2020/12/10 05:06:50;;;;;;;21.50;10.77;;;-0.50;99.90;;;;;;2072092;28;20186;-68
2020/12/10 05:07:52;;;;;;;24.48;11.63;;;-0.50;99.90;;;;;;2065830;28;20187;-68
2020/12/10 05:09:09;;;;;;;19.40;10.18;;;-0.50;99.90;;;;;;2072246;28;20187;-68
2020/12/10 05:10:09;;;;;;;22.63;11.25;;;-0.50;99.90;;;;;;2072754;28;20188;-68
2020/12/10 05:11:11;;;;;;;15.57;9.00;;;-0.50;99.90;;;;;;2071816;28;20271;-70
2020/12/10 05:12:18;;;;;;;19.98;10.90;;;-0.50;99.90;;;;;;2063922;28;20201;-67
2020/12/10 05:13:19;;;;;;;17.98;9.15;;;-0.50;99.90;;;;;;2071980;28;20635;-67
2020/12/10 05:14:22;;;;;;;14.35;8.32;;;-0.60;99.90;;;;;;2072669;28;20192;-67
2020/12/10 05:15:36;;;;;;;17.50;9.30;;;-0.60;99.90;;;;;;2072835;28;20193;-68